Lyons, Ohio
Current Conditions -  °F | °C
As of 2:15 PM on Friday 28 Nov 2014 (Local Time) from KUSE Reporting Station
Overcast Overcast  
Wind Chill: 17°   Ceiling: 4600
Heat Index: 27°   Visibility: 10mi
Dew Point: 18°   Wind: 10mph
Humidity: 69%   Direction: 200°SSW
Pressure: 30.21"   Gusts: NA
Location:  41.7°N, 84.07°W
Report Text: KUSE 281915Z AUTO 20009KT 10SM SCT024 BKN046 OVC060 M03/M08 A3021 RMK AO2
Loading
Personal Weather Stations






























Interactive Weather Map New forecast layout! Learn more

10-Day Weather Forecast

Advertisements
Track Severe Weather on mobile